createdAt,value
2022-08-05T00:21:11.960Z,1002.2080000000001
2022-08-05T00:51:50.318Z,1000.8910000000001
2022-08-05T01:21:54.345Z,1001.5110000000001
2022-08-05T01:52:17.707Z,999.4110000000001
2022-08-05T02:22:30.806Z,1000.3380000000001
2022-08-05T02:52:48.696Z,1001.308
2022-08-05T03:23:06.960Z,1001.289
2022-08-05T03:55:52.347Z,1002.796
2022-08-05T04:24:05.128Z,1001.953
2022-08-05T04:54:09.726Z,1002.508
2022-08-05T05:24:35.799Z,1002.997
2022-08-05T05:54:51.978Z,1002.569
2022-08-05T06:25:25.104Z,1001.8480000000001
2022-08-05T06:55:36.567Z,1002.3860000000001
2022-08-05T07:25:58.407Z,1003.305
2022-08-05T07:56:39.113Z,1003.4889999999999
2022-08-05T08:26:42.659Z,1003.378
2022-08-05T08:57:04.192Z,1003.248
2022-08-05T09:28:04.245Z,1003.5880000000001
2022-08-05T09:57:44.002Z,1003.2330000000001
2022-08-05T10:28:13.681Z,1003.6060000000001
2022-08-05T10:58:41.043Z,1003.758
2022-08-05T11:28:51.308Z,1003.685
2022-08-05T11:59:24.988Z,1003.99
2022-08-05T12:29:43.531Z,1004.195
2022-08-05T13:01:57.598Z,1004.5060000000001
2022-08-05T13:30:34.787Z,1005.258
2022-08-05T14:00:35.931Z,1005.1080000000001
2022-08-05T14:31:00.648Z,1005.4810000000001
2022-08-05T15:01:16.217Z,1005.67
2022-08-05T15:31:34.577Z,1006.194
2022-08-05T16:01:53.823Z,1006.0889999999999
2022-08-05T16:32:11.696Z,1006.385
2022-08-05T17:02:28.365Z,1006.703
2022-08-05T17:32:48.486Z,1006.817
2022-08-05T18:03:05.454Z,1006.926
2022-08-05T18:33:24.777Z,1007.423
2022-08-05T19:34:00.210Z,1008.6560000000001
2022-08-05T20:04:20.825Z,1008.944
2022-08-05T20:34:38.438Z,1009.418
2022-08-05T21:04:55.322Z,1009.709
2022-08-05T21:35:30.141Z,1010.0260000000001
2022-08-05T22:05:49.155Z,1010.143
2022-08-05T22:35:59.110Z,1010.336
2022-08-05T23:06:18.835Z,1010.578
2022-08-05T23:36:40.085Z,1010.938
